Estación Meteorológica Peña el Pijo (Robertgarden) [ 01/16/21 21:10:03 CET ]

Fecha Hora Presion(HPa) Temp (°C) Humedad % Rocio (°C) Viento ( m/s) Direccion Lluvia 1Hora(mm) Lluvia 24H(mm) LLuvia Total(mm)
2021-Jan-14 01:09:44 1014.400 -1.3 81 -4.1 - N     89.61
2021-Jan-14 02:09:43 1013.600 -1.6 77 -5.1 - N     89.61
2021-Jan-14 03:11:32 1013.500 -0.9 73 -5.2 - N     89.61
2021-Jan-14 04:09:31 1013.200 -1.5 74 -5.6 - N     89.61
2021-Jan-14 05:09:39 1012.600 -1.2 71 -5.8 - N     89.61
2021-Jan-14 06:09:37 1012.600 -0.8 68 -6.0 - N     89.61
2021-Jan-14 07:09:17 1012.600 -1.5 70 -6.2 - N     89.61
2021-Jan-14 08:09:34 1012.400 -1.4 68 -6.6 - N     89.61
2021-Jan-14 09:09:46 1012.800 -1.1 68 -6.3 - N     89.61
2021-Jan-14 10:09:16 1012.800 5.8 57 -2.1 - N     89.61
2021-Jan-14 11:09:24 1012.800 8.9 45 -2.5 - N     89.61
2021-Jan-14 12:09:18 1012.600 11.3 38 -2.6 - N     89.61
2021-Jan-14 13:09:24 1011.800 12.1 35 -3.0 - N     89.61
2021-Jan-14 14:09:50 1010.900 13.3 31 -3.5 - N     89.61
2021-Jan-14 15:09:36 1010.300 13.6 30 -3.7 - N     89.61
2021-Jan-14 16:09:47 1010.400 10.9 33 -4.3 - N     89.61
2021-Jan-14 17:09:06 1010.900 9.2 38 -4.5 - N     89.61
2021-Jan-14 18:09:28 1011.000 5.8 52 -3.3 - N     89.61
2021-Jan-14 19:09:37 1011.700 3.6 60 -3.3 - N     89.61
2021-Jan-14 20:09:27 1012.200 2.4 64 -3.8 - N     89.61
2021-Jan-14 21:09:33 1012.700 2.3 60 -4.6 - N     89.61
2021-Jan-14 22:09:28 1012.700 1.5 62 -5.0 - N     89.61
2021-Jan-14 23:09:12 1013.100 1.4 61 -5.3 - N     89.61

Temperatura Máxima:13°    Temperatura Mínima:-1°
Presión Máxima:1014.400 Hpa    Presión Mínima:1010.300 Hpa


Volver